Time;durP1;ratioP1;P1;durP2;ratioP2;P2;SDS_P1;SDS_P2;PMS_P1;PMS_P2;Temp;Humidity;BMP_temperature;BMP_pressure;BME280_temperature;BME280_humidity;BME280_pressure;Samples;Min_cycle;Max_cycle;Signal;HPM_P1;HPM_P2
2023/08/21 00:00:38;;;;;;;;;;;;;;;;;;4938038;28;111236;-86
2023/08/21 00:03:06;;;;;;;;;;;;;;;;;;4920213;28;115061;-86
2023/08/21 00:05:32;;;;;;;;;;;;;;;;;;4918870;28;94216;-86
2023/08/21 00:07:59;;;;;;;;;;;;;;;;;;4942233;28;119463;-87
2023/08/21 00:10:25;;;;;;;;;;;;;;;;;;4921031;28;118038;-86
2023/08/21 00:12:52;;;;;;;;;;;;;;;;;;4915887;28;94966;-86
2023/08/21 00:15:18;;;;;;;;;;;;;;;;;;4894497;28;104708;-87
2023/08/21 00:17:44;;;;;;;;;;;;;;;;;;4896764;28;121436;-87
2023/08/21 00:20:11;;;;;;;;;;;;;;;;;;4924210;28;118659;-86
2023/08/21 00:22:40;;;;;;;;;;;;;;;;;;4887367;28;123806;-86
2023/08/21 00:25:07;;;;;;;;;;;;;;;;;;4881976;28;121419;-86
2023/08/21 00:27:33;;;;;;;;;;;;;;;;;;4898743;28;122417;-87
2023/08/21 00:30:00;;;;;;;;;;;;;;;;;;4881316;28;92108;-86
2023/08/21 00:32:26;;;;;;;;;;;;;;;;;;4910302;28;122472;-86
2023/08/21 00:34:53;;;;;;;;;;;;;;;;;;4886396;28;94987;-86
2023/08/21 00:37:19;;;;;;;;;;;;;;;;;;4915402;28;121075;-87
2023/08/21 00:39:46;;;;;;;;;;;;;;;;;;4899223;28;123569;-87
2023/08/21 00:42:12;;;;;;;;;;;;;;;;;;4880647;28;94671;-87
2023/08/21 00:44:38;;;;;;;;;;;;;;;;;;4909108;28;122340;-86
2023/08/21 00:47:05;;;;;;;;;;;;;;;;;;4899213;28;92861;-87
2023/08/21 00:49:31;;;;;;;;;;;;;;;;;;4898765;28;100410;-87
2023/08/21 00:51:58;;;;;;;;;;;;;;;;;;4905627;28;121122;-86
2023/08/21 00:54:24;;;;;;;;;;;;;;;;;;4900079;28;117379;-86
2023/08/21 00:56:52;;;;;;;;;;;;;;;;;;4883760;28;96075;-87
2023/08/21 00:59:18;;;;;;;;;;;;;;;;;;4907836;28;92827;-86
2023/08/21 01:01:45;;;;;;;;;;;;;;;;;;4900035;28;98641;-86
2023/08/21 01:04:12;;;;;;;;;;;;;;;;;;4880387;28;122116;-86
2023/08/21 01:06:38;;;;;;;;;;;;;;;;;;4883613;28;108067;-86
2023/08/21 01:09:07;;;;;;;;;;;;;;;;;;4893613;28;95213;-86
2023/08/21 01:11:33;;;;;;;;;;;;;;;;;;4885113;28;122388;-87
2023/08/21 01:14:00;;;;;;;;;;;;;;;;;;4899478;28;102528;-87
2023/08/21 01:16:26;;;;;;;;;;;;;;;;;;4898453;28;120008;-86
2023/08/21 01:18:53;;;;;;;;;;;;;;;;;;4907827;28;91974;-87
2023/08/21 01:21:20;;;;;;;;;;;;;;;;;;4893593;28;92468;-86
2023/08/21 01:23:46;;;;;;;;;;;;;;;;;;4890659;28;123207;-86
2023/08/21 01:26:13;;;;;;;;;;;;;;;;;;4886877;28;121491;-86
2023/08/21 01:28:39;;;;;;;;;;;;;;;;;;4914596;28;92327;-87
2023/08/21 01:31:06;;;;;;;;;;;;;;;;;;4883995;28;115312;-87
2023/08/21 01:33:32;;;;;;;;;;;;;;;;;;4895346;28;93610;-87
2023/08/21 01:35:59;;;;;;;;;;;;;;;;;;4899294;28;121428;-87
2023/08/21 01:38:25;;;;;;;;;;;;;;;;;;4918652;28;113286;-87
2023/08/21 01:40:51;;;;;;;;;;;;;;;;;;4902099;28;103628;-87
2023/08/21 01:43:20;;;;;;;;;;;;;;;;;;4902845;28;102337;-87
2023/08/21 01:45:47;;;;;;;;;;;;;;;;;;4885547;28;120736;-87
2023/08/21 01:48:13;;;;;;;;;;;;;;;;;;4919723;28;122756;-87
2023/08/21 01:50:39;;;;;;;;;;;;;;;;;;4917080;28;107926;-86
2023/08/21 01:53:06;;;;;;;;;;;;;;;;;;4918259;28;123233;-87
2023/08/21 01:55:32;;;;;;;;;;;;;;;;;;4902541;28;94945;-87
2023/08/21 01:57:59;;;;;;;;;;;;;;;;;;4897189;28;121270;-87
2023/08/21 02:00:25;;;;;;;;;;;;;;;;;;4891797;28;94927;-87
2023/08/21 02:02:52;;;;;;;;;;;;;;;;;;4902917;28;122420;-87
2023/08/21 02:05:18;;;;;;;;;;;;;;;;;;4888903;28;110115;-86
2023/08/21 02:07:45;;;;;;;;;;;;;;;;;;4916182;28;92023;-87
2023/08/21 02:10:12;;;;;;;;;;;;;;;;;;4903057;28;119298;-87
2023/08/21 02:12:38;;;;;;;;;;;;;;;;;;4906013;28;119411;-87
2023/08/21 02:15:06;;;;;;;;;;;;;;;;;;4883046;28;126146;-87
2023/08/21 02:17:33;;;;;;;;;;;;;;;;;;4900445;28;121304;-87
2023/08/21 02:19:59;;;;;;;;;;;;;;;;;;4903252;28;91894;-87
2023/08/21 02:22:25;;;;;;;;;;;;;;;;;;4891261;28;122520;-86
2023/08/21 02:24:52;;;;;;;;;;;;;;;;;;4898782;28;95032;-87
2023/08/21 02:27:18;;;;;;;;;;;;;;;;;;4900446;28;122601;-87
2023/08/21 02:29:46;;;;;;;;;;;;;;;;;;4918190;28;94360;-87
2023/08/21 02:32:12;;;;;;;;;;;;;;;;;;4901164;28;120191;-86
2023/08/21 02:34:39;;;;;;;;;;;;;;;;;;4884573;28;94967;-87
2023/08/21 02:37:06;;;;;;;;;;;;;;;;;;4890586;28;94042;-87
2023/08/21 02:39:32;;;;;;;;;;;;;;;;;;4885342;28;118940;-87
2023/08/21 02:41:59;;;;;;;;;;;;;;;;;;4902016;28;121285;-87
2023/08/21 02:44:25;;;;;;;;;;;;;;;;;;4884393;28;121181;-86
2023/08/21 02:46:52;;;;;;;;;;;;;;;;;;4901232;28;94011;-86
2023/08/21 02:49:18;;;;;;;;;;;;;;;;;;4896937;28;121548;-87
2023/08/21 02:51:45;;;;;;;;;;;;;;;;;;4896420;28;121900;-87
2023/08/21 02:54:11;;;;;;;;;;;;;;;;;;4892319;28;98361;-87
2023/08/21 02:56:37;;;;;;;;;;;;;;;;;;4896952;28;120153;-87
2023/08/21 02:59:04;;;;;;;;;;;;;;;;;;4890093;28;94920;-87
2023/08/21 03:01:30;;;;;;;;;;;;;;;;;;4890675;28;121304;-87
2023/08/21 03:03:57;;;;;;;;;;;;;;;;;;4890833;28;94891;-87
2023/08/21 03:06:23;;;;;;;;;;;;;;;;;;4877290;28;120666;-87
2023/08/21 03:08:50;;;;;;;;;;;;;;;;;;4896040;28;94589;-87
2023/08/21 03:11:17;;;;;;;;;;;;;;;;;;4897224;28;92669;-87
2023/08/21 03:13:43;;;;;;;;;;;;;;;;;;4897001;28;107261;-87
2023/08/21 03:16:10;;;;;;;;;;;;;;;;;;4895420;28;94350;-87
2023/08/21 03:18:36;;;;;;;;;;;;;;;;;;4891409;28;124635;-87
2023/08/21 03:21:03;;;;;;;;;;;;;;;;;;4898101;28;94923;-87
2023/08/21 03:23:29;;;;;;;;;;;;;;;;;;4912230;28;122290;-87
2023/08/21 03:25:56;;;;;;;;;;;;;;;;;;4889816;28;94931;-87
2023/08/21 03:28:22;;;;;;;;;;;;;;;;;;4889611;28;101910;-87
2023/08/21 03:30:48;;;;;;;;;;;;;;;;;;4897195;28;100258;-87
2023/08/21 03:33:16;;;;;;;;;;;;;;;;;;4897417;28;94520;-87
2023/08/21 03:35:42;;;;;;;;;;;;;;;;;;4886187;28;95281;-87
2023/08/21 03:38:09;;;;;;;;;;;;;;;;;;4910137;28;123673;-87
2023/08/21 03:40:42;;;;;;;;;;;;;;;;;;4887115;28;92421;-87
2023/08/21 03:43:09;;;;;;;;;;;;;;;;;;4897549;28;94532;-87
2023/08/21 03:45:35;;;;;;;;;;;;;;;;;;4900329;28;118832;-87
2023/08/21 03:48:03;;;;;;;;;;;;;;;;;;4897774;28;92624;-87
2023/08/21 03:50:29;;;;;;;;;;;;;;;;;;4881515;28;93668;-87
2023/08/21 03:52:58;;;;;;;;;;;;;;;;;;4883503;28;115056;-87
2023/08/21 03:55:25;;;;;;;;;;;;;;;;;;4902680;28;92164;-87
2023/08/21 03:57:51;;;;;;;;;;;;;;;;;;4887974;28;122649;-87
2023/08/21 04:00:18;;;;;;;;;;;;;;;;;;4897413;28;122594;-87
2023/08/21 04:02:45;;;;;;;;;;;;;;;;;;4886845;28;92773;-87
2023/08/21 04:05:12;;;;;;;;;;;;;;;;;;4879836;28;101075;-87
2023/08/21 04:07:38;;;;;;;;;;;;;;;;;;4900448;28;113208;-87
2023/08/21 04:10:05;;;;;;;;;;;;;;;;;;4898584;28;122124;-87
2023/08/21 04:12:31;;;;;;;;;;;;;;;;;;4883007;28;122998;-87
2023/08/21 04:14:57;;;;;;;;;;;;;;;;;;4893280;28;92924;-87
2023/08/21 04:17:24;;;;;;;;;;;;;;;;;;4894122;28;122063;-87
2023/08/21 04:19:51;;;;;;;;;;;;;;;;;;4895845;28;93186;-87
2023/08/21 04:22:18;;;;;;;;;;;;;;;;;;4877387;28;101619;-87
2023/08/21 04:24:45;;;;;;;;;;;;;;;;;;4892706;28;118460;-87
2023/08/21 04:27:11;;;;;;;;;;;;;;;;;;4879966;28;94671;-87
2023/08/21 04:29:38;;;;;;;;;;;;;;;;;;4895722;28;122413;-87
2023/08/21 04:32:05;;;;;;;;;;;;;;;;;;4890306;28;94966;-87
2023/08/21 04:34:31;;;;;;;;;;;;;;;;;;4896441;28;94240;-87
2023/08/21 04:36:57;;;;;;;;;;;;;;;;;;4898187;28;92330;-87
2023/08/21 04:39:24;;;;;;;;;;;;;;;;;;4902977;28;94903;-87
2023/08/21 04:41:50;;;;;;;;;;;;;;;;;;4884561;28;94034;-87
2023/08/21 04:44:17;;;;;;;;;;;;;;;;;;4889284;28;95889;-87
2023/08/21 04:46:44;;;;;;;;;;;;;;;;;;4883303;28;94935;-87
2023/08/21 04:49:10;;;;;;;;;;;;;;;;;;4887142;28;94952;-87
2023/08/21 04:51:37;;;;;;;;;;;;;;;;;;4902930;28;96498;-86
2023/08/21 04:54:03;;;;;;;;;;;;;;;;;;4882592;28;92930;-87
2023/08/21 04:56:30;;;;;;;;;;;;;;;;;;4893382;28;96574;-87
2023/08/21 04:58:56;;;;;;;;;;;;;;;;;;4899123;28;94353;-87
2023/08/21 05:01:25;;;;;;;;;;;;;;;;;;4916315;28;92482;-87
2023/08/21 05:03:51;;;;;;;;;;;;;;;;;;4911532;28;92463;-86
2023/08/21 05:06:18;;;;;;;;;;;;;;;;;;4880724;28;96611;-87
2023/08/21 05:08:44;;;;;;;;;;;;;;;;;;4915757;28;101542;-87
2023/08/21 05:11:11;;;;;;;;;;;;;;;;;;4898149;28;104792;-87
2023/08/21 05:13:39;;;;;;;;;;;;;;;;;;4898864;28;94662;-88
2023/08/21 05:16:08;;;;;;;;;;;;;;;;;;4899177;28;93325;-87
2023/08/21 05:18:36;;;;;;;;;;;;;;;;;;4893978;28;95476;-87
2023/08/21 05:21:04;;;;;;;;;;;;;;;;;;4891827;28;95333;-86
2023/08/21 05:23:30;;;;;;;;;;;;;;;;;;4877067;28;96730;-86
2023/08/21 05:26:03;;;;;;;;;;;;;;;;;;4893524;28;95519;-87
2023/08/21 05:28:30;;;;;;;;;;;;;;;;;;4881524;28;94763;-87
2023/08/21 05:30:56;;;;;;;;;;;;;;;;;;4895617;28;122422;-87
2023/08/21 05:33:22;;;;;;;;;;;;;;;;;;4900709;28;123021;-86
2023/08/21 05:35:49;;;;;;;;;;;;;;;;;;4896632;28;93513;-86
2023/08/21 05:38:16;;;;;;;;;;;;;;;;;;4893152;28;121448;-87
2023/08/21 05:40:43;;;;;;;;;;;;;;;;;;4889503;28;94315;-86
2023/08/21 05:43:09;;;;;;;;;;;;;;;;;;4889771;28;107997;-87
2023/08/21 05:45:39;;;;;;;;;;;;;;;;;;4895365;28;95531;-87
2023/08/21 05:48:05;;;;;;;;;;;;;;;;;;4899065;28;94418;-87
2023/08/21 05:50:32;;;;;;;;;;;;;;;;;;4914364;28;117683;-87
2023/08/21 05:53:01;;;;;;;;;;;;;;;;;;4897247;28;119762;-87
2023/08/21 05:55:27;;;;;;;;;;;;;;;;;;4893943;28;97361;-87
2023/08/21 05:57:54;;;;;;;;;;;;;;;;;;4890180;28;124078;-87
2023/08/21 06:00:20;;;;;;;;;;;;;;;;;;4884205;28;115211;-87
2023/08/21 06:02:47;;;;;;;;;;;;;;;;;;4894414;28;94813;-87
2023/08/21 06:05:30;;;;;;;;;;;;;;;;;;4899733;28;93078;-87
2023/08/21 06:07:57;;;;;;;;;;;;;;;;;;4879161;28;93780;-87
2023/08/21 06:10:23;;;;;;;;;;;;;;;;;;4867688;28;94155;-87
2023/08/21 06:12:51;;;;;;;;;;;;;;;;;;4890298;28;120684;-87
2023/08/21 06:15:17;;;;;;;;;;;;;;;;;;4887060;28;114841;-87
2023/08/21 06:17:43;;;;;;;;;;;;;;;;;;4899008;28;92618;-87
2023/08/21 06:20:10;;;;;;;;;;;;;;;;;;4892115;28;125146;-87
2023/08/21 06:22:37;;;;;;;;;;;;;;;;;;4911727;28;97899;-87
2023/08/21 06:25:03;;;;;;;;;;;;;;;;;;4878323;28;123535;-87
2023/08/21 06:27:30;;;;;;;;;;;;;;;;;;4880776;28;117549;-87
2023/08/21 06:29:58;;;;;;;;;;;;;;;;;;4895628;28;95419;-87
2023/08/21 06:32:24;;;;;;;;;;;;;;;;;;4900413;28;121371;-87
2023/08/21 06:34:51;;;;;;;;;;;;;;;;;;4894157;28;94231;-87
2023/08/21 06:37:17;;;;;;;;;;;;;;;;;;4895172;28;93777;-87
2023/08/21 06:39:45;;;;;;;;;;;;;;;;;;4881777;28;94467;-87
2023/08/21 06:42:11;;;;;;;;;;;;;;;;;;4899918;28;95314;-87
2023/08/21 06:44:42;;;;;;;;;;;;;;;;;;4897745;28;96487;-87
2023/08/21 06:47:09;;;;;;;;;;;;;;;;;;4892495;28;92452;-88
2023/08/21 06:49:36;;;;;;;;;;;;;;;;;;4899213;28;95071;-88
2023/08/21 06:52:03;;;;;;;;;;;;;;;;;;4884595;28;119729;-87
2023/08/21 06:54:29;;;;;;;;;;;;;;;;;;4915282;28;121343;-87
2023/08/21 06:56:56;;;;;;;;;;;;;;;;;;4898531;28;116628;-87
2023/08/21 06:59:22;;;;;;;;;;;;;;;;;;4898848;28;121266;-87
2023/08/21 07:01:50;;;;;;;;;;;;;;;;;;4920017;28;91869;-87
2023/08/21 07:04:16;;;;;;;;;;;;;;;;;;4884469;28;116456;-87
2023/08/21 07:06:42;;;;;;;;;;;;;;;;;;4903119;28;120807;-87
2023/08/21 07:09:09;;;;;;;;;;;;;;;;;;4916033;28;98021;-87
2023/08/21 07:11:36;;;;;;;;;;;;;;;;;;4902543;28;122866;-86
2023/08/21 07:14:03;;;;;;;;;;;;;;;;;;4900636;28;94892;-87
2023/08/21 07:16:29;;;;;;;;;;;;;;;;;;4916731;28;122055;-87
2023/08/21 07:18:56;;;;;;;;;;;;;;;;;;4896943;28;100608;-87
2023/08/21 07:21:22;;;;;;;;;;;;;;;;;;4892054;28;124774;-86
2023/08/21 07:23:58;;;;;;;;;;;;;;;;;;4918171;28;92353;-87
2023/08/21 07:26:25;;;;;;;;;;;;;;;;;;4893194;28;120498;-87
2023/08/21 07:28:52;;;;;;;;;;;;;;;;;;4899676;28;92475;-87
2023/08/21 07:31:19;;;;;;;;;;;;;;;;;;4917193;28;91922;-87
2023/08/21 07:33:46;;;;;;;;;;;;;;;;;;4889806;28;107121;-87
2023/08/21 07:36:16;;;;;;;;;;;;;;;;;;4912301;28;122414;-87
2023/08/21 07:38:43;;;;;;;;;;;;;;;;;;4900817;28;93217;-87
2023/08/21 07:41:10;;;;;;;;;;;;;;;;;;4916160;28;122245;-87
2023/08/21 07:43:36;;;;;;;;;;;;;;;;;;4903437;28;93646;-87
2023/08/21 07:46:03;;;;;;;;;;;;;;;;;;4899279;28;120681;-87
2023/08/21 07:48:29;;;;;;;;;;;;;;;;;;4899400;28;118226;-87
2023/08/21 07:50:56;;;;;;;;;;;;;;;;;;4916746;28;121613;-87
2023/08/21 07:53:22;;;;;;;;;;;;;;;;;;4899288;28;109940;-88
2023/08/21 07:55:48;;;;;;;;;;;;;;;;;;4916575;28;120756;-88
2023/08/21 07:58:15;;;;;;;;;;;;;;;;;;4897538;28;125250;-87
2023/08/21 08:00:42;;;;;;;;;;;;;;;;;;4893433;28;124001;-87
2023/08/21 08:03:08;;;;;;;;;;;;;;;;;;4875373;28;102004;-87
2023/08/21 08:05:35;;;;;;;;;;;;;;;;;;4893710;28;121727;-87
2023/08/21 08:08:01;;;;;;;;;;;;;;;;;;4898179;28;120572;-88
2023/08/21 08:10:28;;;;;;;;;;;;;;;;;;4895924;28;106116;-91
2023/08/21 08:12:54;;;;;;;;;;;;;;;;;;4871256;28;94935;-89
2023/08/21 08:15:21;;;;;;;;;;;;;;;;;;4910788;28;94004;-89
2023/08/21 08:17:51;;;;;;;;;;;;;;;;;;4896638;28;95160;-90
2023/08/21 08:20:18;;;;;;;;;;;;;;;;;;4915553;28;92913;-88
2023/08/21 08:22:44;;;;;;;;;;;;;;;;;;4902045;28;121947;-87
2023/08/21 08:25:11;;;;;;;;;;;;;;;;;;4898372;28;121609;-87
2023/08/21 08:27:37;;;;;;;;;;;;;;;;;;4900803;28;116683;-86
2023/08/21 08:30:04;;;;;;;;;;;;;;;;;;4915385;28;121451;-87
2023/08/21 08:32:30;;;;;;;;;;;;;;;;;;4914006;28;119187;-86
2023/08/21 08:34:56;;;;;;;;;;;;;;;;;;4897961;28;95160;-87
2023/08/21 08:37:23;;;;;;;;;;;;;;;;;;4915185;28;121350;-87
2023/08/21 08:39:49;;;;;;;;;;;;;;;;;;4897365;28;93220;-87
2023/08/21 08:42:16;;;;;;;;;;;;;;;;;;4897907;28;92873;-86
2023/08/21 08:44:42;;;;;;;;;;;;;;;;;;4914850;28;121494;-86
2023/08/21 08:47:09;;;;;;;;;;;;;;;;;;4900952;28;94681;-87
2023/08/21 08:49:35;;;;;;;;;;;;;;;;;;4890158;28;124092;-85
2023/08/21 08:52:02;;;;;;;;;;;;;;;;;;4895291;28;98701;-86
2023/08/21 08:54:28;;;;;;;;;;;;;;;;;;4882218;28;105075;-86
2023/08/21 08:56:55;;;;;;;;;;;;;;;;;;4880136;28;121053;-86
2023/08/21 08:59:21;;;;;;;;;;;;;;;;;;4890958;28;92471;-84
2023/08/21 09:01:47;;;;;;;;;;;;;;;;;;4916507;28;119511;-83
2023/08/21 09:04:14;;;;;;;;;;;;;;;;;;4908069;28;120703;-83
2023/08/21 09:06:40;;;;;;;;;;;;;;;;;;4888064;28;121186;-81
2023/08/21 09:09:07;;;;;;;;;;;;;;;;;;4917020;28;96037;-81
2023/08/21 09:11:33;;;;;;;;;;;;;;;;;;4897289;28;122470;-81
2023/08/21 09:14:00;;;;;;;;;;;;;;;;;;4899133;28;107194;-81
2023/08/21 09:16:26;;;;;;;;;;;;;;;;;;4898697;28;121292;-81
2023/08/21 09:18:53;;;;;;;;;;;;;;;;;;4912889;28;119720;-81
2023/08/21 09:21:20;;;;;;;;;;;;;;;;;;4894366;28;123220;-81
2023/08/21 09:23:47;;;;;;;;;;;;;;;;;;4915591;28;93527;-81
2023/08/21 09:26:13;;;;;;;;;;;;;;;;;;4897815;28;122057;-81
2023/08/21 09:28:39;;;;;;;;;;;;;;;;;;4916538;28;97520;-81
2023/08/21 09:31:06;;;;;;;;;;;;;;;;;;4897507;28;121302;-81
2023/08/21 09:33:32;;;;;;;;;;;;;;;;;;4914201;28;120998;-82
2023/08/21 09:35:59;;;;;;;;;;;;;;;;;;4883795;28;98359;-81
2023/08/21 09:38:25;;;;;;;;;;;;;;;;;;4912416;28;123871;-81
2023/08/21 09:40:52;;;;;;;;;;;;;;;;;;4914374;28;92770;-81
2023/08/21 09:43:18;;;;;;;;;;;;;;;;;;4895840;28;120583;-81
2023/08/21 09:45:45;;;;;;;;;;;;;;;;;;4893526;28;124100;-82
2023/08/21 09:48:11;;;;;;;;;;;;;;;;;;4885470;28;120523;-81
2023/08/21 09:50:38;;;;;;;;;;;;;;;;;;4905814;28;109096;-81
2023/08/21 09:53:04;;;;;;;;;;;;;;;;;;4917283;28;122402;-81
2023/08/21 09:55:31;;;;;;;;;;;;;;;;;;4872293;28;111295;-81
2023/08/21 09:57:58;;;;;;;;;;;;;;;;;;4901310;28;92513;-81
2023/08/21 10:00:25;;;;;;;;;;;;;;;;;;4895930;28;120316;-81
2023/08/21 10:02:52;;;;;;;;;;;;;;;;;;4901975;28;92995;-81
2023/08/21 10:05:18;;;;;;;;;;;;;;;;;;4919770;28;104402;-82
2023/08/21 10:07:45;;;;;;;;;;;;;;;;;;4921039;28;101387;-82
2023/08/21 10:10:11;;;;;;;;;;;;;;;;;;4889767;28;119083;-82
2023/08/21 10:12:37;;;;;;;;;;;;;;;;;;4903240;28;122464;-82
2023/08/21 10:15:04;;;;;;;;;;;;;;;;;;4901361;28;92862;-82
2023/08/21 10:17:31;;;;;;;;;;;;;;;;;;4889373;28;122296;-82
2023/08/21 10:19:57;;;;;;;;;;;;;;;;;;4903783;28;92368;-82
2023/08/21 10:22:24;;;;;;;;;;;;;;;;;;4903208;28;112028;-81
2023/08/21 10:24:50;;;;;;;;;;;;;;;;;;4917289;28;108750;-81
2023/08/21 10:27:16;;;;;;;;;;;;;;;;;;4917225;28;123343;-81
2023/08/21 10:29:43;;;;;;;;;;;;;;;;;;4910592;28;121529;-81
2023/08/21 10:32:10;;;;;;;;;;;;;;;;;;4903653;28;101027;-82
2023/08/21 10:34:37;;;;;;;;;;;;;;;;;;4919685;28;120180;-82
2023/08/21 10:37:05;;;;;;;;;;;;;;;;;;4905713;28;117045;-83
2023/08/21 10:39:33;;;;;;;;;;;;;;;;;;4920278;28;122063;-82
2023/08/21 10:41:59;;;;;;;;;;;;;;;;;;4903485;28;121781;-83
2023/08/21 10:44:26;;;;;;;;;;;;;;;;;;4904560;28;101820;-82
2023/08/21 10:46:52;;;;;;;;;;;;;;;;;;4920006;28;121079;-82
2023/08/21 10:49:19;;;;;;;;;;;;;;;;;;4900736;28;94773;-82
2023/08/21 10:51:45;;;;;;;;;;;;;;;;;;4916401;28;102599;-82
2023/08/21 10:54:11;;;;;;;;;;;;;;;;;;4910903;28;93895;-82
2023/08/21 10:56:38;;;;;;;;;;;;;;;;;;4901461;28;121568;-82
2023/08/21 10:59:04;;;;;;;;;;;;;;;;;;4921583;28;114582;-83
2023/08/21 11:01:31;;;;;;;;;;;;;;;;;;4919230;28;93103;-83
2023/08/21 11:03:57;;;;;;;;;;;;;;;;;;4905344;28;121030;-82
2023/08/21 11:06:25;;;;;;;;;;;;;;;;;;4899843;28;120668;-82
2023/08/21 11:08:51;;;;;;;;;;;;;;;;;;4916277;28;122866;-82
2023/08/21 11:11:17;;;;;;;;;;;;;;;;;;4916553;28;106878;-82
2023/08/21 11:13:44;;;;;;;;;;;;;;;;;;4915528;28;120996;-82
2023/08/21 11:16:10;;;;;;;;;;;;;;;;;;4914827;28;122658;-82
2023/08/21 11:18:37;;;;;;;;;;;;;;;;;;4920132;28;99456;-82
2023/08/21 11:21:04;;;;;;;;;;;;;;;;;;4899470;28;122373;-83
2023/08/21 11:23:30;;;;;;;;;;;;;;;;;;4895676;28;122842;-82
2023/08/21 11:25:57;;;;;;;;;;;;;;;;;;4916697;28;120747;-83
2023/08/21 11:28:32;;;;;;;;;;;;;;;;;;4913892;28;100201;-82
2023/08/21 11:30:58;;;;;;;;;;;;;;;;;;4907678;28;122219;-84
2023/08/21 11:33:25;;;;;;;;;;;;;;;;;;4899843;28;98350;-84
2023/08/21 11:35:53;;;;;;;;;;;;;;;;;;4916745;28;109740;-84
2023/08/21 11:38:19;;;;;;;;;;;;;;;;;;4879678;28;121077;-83
2023/08/21 11:40:45;;;;;;;;;;;;;;;;;;4905860;28;124272;-83
2023/08/21 11:43:12;;;;;;;;;;;;;;;;;;4917576;28;103435;-84
2023/08/21 11:45:38;;;;;;;;;;;;;;;;;;4908106;28;121887;-83
2023/08/21 11:48:22;;;;;;;;;;;;;;;;;;4880797;28;120603;-83
2023/08/21 11:50:49;;;;;;;;;;;;;;;;;;4906516;28;122831;-83
2023/08/21 11:53:15;;;;;;;;;;;;;;;;;;4899872;28;103547;-84
2023/08/21 11:55:41;;;;;;;;;;;;;;;;;;4917518;28;96694;-83
2023/08/21 11:58:08;;;;;;;;;;;;;;;;;;4911426;28;121108;-83
2023/08/21 12:00:34;;;;;;;;;;;;;;;;;;4917399;28;120662;-82
2023/08/21 12:03:02;;;;;;;;;;;;;;;;;;4916770;28;112149;-83
2023/08/21 12:05:28;;;;;;;;;;;;;;;;;;4901352;28;123347;-82
2023/08/21 12:07:55;;;;;;;;;;;;;;;;;;4907183;28;122652;-83
2023/08/21 12:10:21;;;;;;;;;;;;;;;;;;4904202;28;121005;-82
2023/08/21 12:12:48;;;;;;;;;;;;;;;;;;4929792;28;120770;-84
2023/08/21 12:15:14;;;;;;;;;;;;;;;;;;4916700;28;118117;-82
2023/08/21 12:17:40;;;;;;;;;;;;;;;;;;4920157;28;106224;-82
2023/08/21 12:20:10;;;;;;;;;;;;;;;;;;4907551;28;121970;-83
2023/08/21 12:22:36;;;;;;;;;;;;;;;;;;4922662;28;107969;-81
2023/08/21 12:25:03;;;;;;;;;;;;;;;;;;4926532;28;92426;-83
2023/08/21 12:27:30;;;;;;;;;;;;;;;;;;4884915;28;94844;-82
2023/08/21 12:29:57;;;;;;;;;;;;;;;;;;4921316;28;122515;-84
2023/08/21 12:32:23;;;;;;;;;;;;;;;;;;4891790;28;115626;-83
2023/08/21 12:34:49;;;;;;;;;;;;;;;;;;4907674;28;93238;-83
2023/08/21 12:37:16;;;;;;;;;;;;;;;;;;4921409;28;122353;-83
2023/08/21 12:39:43;;;;;;;;;;;;;;;;;;4921465;28;121428;-83
2023/08/21 12:42:09;;;;;;;;;;;;;;;;;;4896171;28;108788;-82
2023/08/21 12:44:36;;;;;;;;;;;;;;;;;;4910866;28;92824;-82
2023/08/21 12:47:02;;;;;;;;;;;;;;;;;;4900605;28;120596;-83
2023/08/21 12:49:29;;;;;;;;;;;;;;;;;;4915661;28;94643;-83
2023/08/21 12:51:55;;;;;;;;;;;;;;;;;;4901679;28;119627;-83
2023/08/21 12:54:22;;;;;;;;;;;;;;;;;;4902052;28;94551;-83
2023/08/21 12:56:48;;;;;;;;;;;;;;;;;;4916433;28;122390;-84
2023/08/21 12:59:14;;;;;;;;;;;;;;;;;;4914995;28;105733;-83
2023/08/21 13:01:44;;;;;;;;;;;;;;;;;;4912073;28;120883;-84
2023/08/21 13:04:10;;;;;;;;;;;;;;;;;;4905930;28;120401;-83
2023/08/21 13:06:37;;;;;;;;;;;;;;;;;;4919382;28;118898;-84
2023/08/21 13:09:05;;;;;;;;;;;;;;;;;;4906156;28;114497;-82
2023/08/21 13:11:31;;;;;;;;;;;;;;;;;;4903080;28;107991;-83
2023/08/21 13:13:58;;;;;;;;;;;;;;;;;;4918408;28;121375;-83
2023/08/21 13:16:24;;;;;;;;;;;;;;;;;;4916192;28;110705;-82
2023/08/21 13:18:50;;;;;;;;;;;;;;;;;;4891946;28;125403;-81
2023/08/21 13:21:17;;;;;;;;;;;;;;;;;;4888311;28;123038;-82
2023/08/21 13:23:43;;;;;;;;;;;;;;;;;;4909666;28;119149;-81
2023/08/21 13:26:10;;;;;;;;;;;;;;;;;;4915262;28;97512;-82
2023/08/21 13:28:36;;;;;;;;;;;;;;;;;;4892353;28;122259;-81
2023/08/21 13:31:03;;;;;;;;;;;;;;;;;;4914939;28;122848;-82
2023/08/21 13:33:30;;;;;;;;;;;;;;;;;;4903782;28;122080;-82
2023/08/21 13:35:56;;;;;;;;;;;;;;;;;;4921399;28;115533;-82
2023/08/21 13:38:23;;;;;;;;;;;;;;;;;;4923311;28;120521;-83
2023/08/21 13:40:49;;;;;;;;;;;;;;;;;;4895596;28;95553;-82
2023/08/21 13:43:16;;;;;;;;;;;;;;;;;;4892225;28;125494;-82
2023/08/21 13:45:42;;;;;;;;;;;;;;;;;;4899104;28;108362;-81
2023/08/21 13:48:09;;;;;;;;;;;;;;;;;;4904291;28;122745;-79
2023/08/21 13:50:35;;;;;;;;;;;;;;;;;;4929315;28;95678;-80
2023/08/21 13:53:02;;;;;;;;;;;;;;;;;;4921676;28;121203;-79
2023/08/21 13:55:28;;;;;;;;;;;;;;;;;;4912878;28;122342;-82
2023/08/21 13:57:55;;;;;;;;;;;;;;;;;;4897580;28;92269;-82
2023/08/21 14:00:22;;;;;;;;;;;;;;;;;;4906538;28;121472;-82
2023/08/21 14:02:48;;;;;;;;;;;;;;;;;;4924832;28;107225;-80
2023/08/21 14:05:14;;;;;;;;;;;;;;;;;;4923407;28;120841;-80
2023/08/21 14:07:41;;;;;;;;;;;;;;;;;;4906524;28;117316;-78
2023/08/21 14:10:08;;;;;;;;;;;;;;;;;;4892875;28;106198;-79
2023/08/21 14:12:34;;;;;;;;;;;;;;;;;;4902557;28;122002;-82
2023/08/21 14:15:02;;;;;;;;;;;;;;;;;;4901743;28;92971;-81
2023/08/21 14:17:29;;;;;;;;;;;;;;;;;;4899517;28;121875;-82
2023/08/21 14:19:55;;;;;;;;;;;;;;;;;;4915897;28;120644;-81
2023/08/21 14:22:22;;;;;;;;;;;;;;;;;;4917156;28;105457;-82
2023/08/21 14:24:48;;;;;;;;;;;;;;;;;;4904971;28;108517;-82
2023/08/21 14:27:15;;;;;;;;;;;;;;;;;;4899268;28;121500;-82
2023/08/21 14:29:41;;;;;;;;;;;;;;;;;;4912684;28;115320;-80
2023/08/21 14:32:08;;;;;;;;;;;;;;;;;;4917873;28;124265;-80
2023/08/21 14:34:34;;;;;;;;;;;;;;;;;;4924204;28;93915;-80
2023/08/21 14:37:00;;;;;;;;;;;;;;;;;;4905289;28;120682;-80
2023/08/21 14:39:28;;;;;;;;;;;;;;;;;;4900180;28;109547;-80
2023/08/21 14:41:54;;;;;;;;;;;;;;;;;;4919140;28;121089;-79
2023/08/21 14:44:21;;;;;;;;;;;;;;;;;;4921394;28;109542;-79
2023/08/21 14:46:47;;;;;;;;;;;;;;;;;;4900057;28;120247;-79
2023/08/21 14:49:14;;;;;;;;;;;;;;;;;;4924515;28;121100;-79
2023/08/21 14:51:40;;;;;;;;;;;;;;;;;;4923098;28;121934;-79
2023/08/21 14:54:07;;;;;;;;;;;;;;;;;;4905538;28;94839;-80
2023/08/21 14:56:34;;;;;;;;;;;;;;;;;;4908700;28;122847;-80
2023/08/21 14:59:00;;;;;;;;;;;;;;;;;;4908084;28;120860;-80
2023/08/21 15:01:27;;;;;;;;;;;;;;;;;;4921952;28;92377;-80
2023/08/21 15:03:54;;;;;;;;;;;;;;;;;;4919595;28;116056;-80
2023/08/21 15:06:20;;;;;;;;;;;;;;;;;;4908927;28;120188;-80
2023/08/21 15:08:46;;;;;;;;;;;;;;;;;;4919754;28;105341;-80
2023/08/21 15:11:13;;;;;;;;;;;;;;;;;;4917802;28;105661;-79
2023/08/21 15:13:40;;;;;;;;;;;;;;;;;;4915905;28;121213;-80
2023/08/21 15:16:06;;;;;;;;;;;;;;;;;;4916250;28;122238;-80
2023/08/21 15:18:32;;;;;;;;;;;;;;;;;;4909077;28;121956;-81
2023/08/21 15:20:59;;;;;;;;;;;;;;;;;;4912413;28;120383;-81
2023/08/21 15:23:25;;;;;;;;;;;;;;;;;;4919241;28;94351;-81
2023/08/21 15:25:52;;;;;;;;;;;;;;;;;;4900497;28;121565;-80
2023/08/21 15:28:19;;;;;;;;;;;;;;;;;;4899708;28;120897;-80
2023/08/21 15:30:45;;;;;;;;;;;;;;;;;;4917473;28;100352;-80
2023/08/21 15:33:11;;;;;;;;;;;;;;;;;;4900881;28;124868;-80
2023/08/21 15:35:38;;;;;;;;;;;;;;;;;;4921347;28;121006;-80
2023/08/21 15:38:04;;;;;;;;;;;;;;;;;;4912700;28;121651;-81
2023/08/21 15:40:31;;;;;;;;;;;;;;;;;;4885458;28;125324;-81
2023/08/21 15:42:57;;;;;;;;;;;;;;;;;;4884340;28;124615;-80
2023/08/21 15:45:24;;;;;;;;;;;;;;;;;;4900065;28;122285;-80
2023/08/21 15:47:50;;;;;;;;;;;;;;;;;;4896401;28;101209;-80
2023/08/21 15:50:19;;;;;;;;;;;;;;;;;;4902374;28;92488;-80
2023/08/21 15:52:46;;;;;;;;;;;;;;;;;;4918010;28;122621;-80
2023/08/21 15:55:12;;;;;;;;;;;;;;;;;;4920391;28;95324;-81
2023/08/21 15:57:39;;;;;;;;;;;;;;;;;;4876265;28;121309;-80
2023/08/21 16:00:06;;;;;;;;;;;;;;;;;;4906728;28;94335;-80
2023/08/21 16:02:33;;;;;;;;;;;;;;;;;;4902258;28;93239;-80
2023/08/21 16:05:00;;;;;;;;;;;;;;;;;;4897905;28;124992;-80
2023/08/21 16:07:26;;;;;;;;;;;;;;;;;;4917657;28;94935;-80
2023/08/21 16:09:52;;;;;;;;;;;;;;;;;;4915921;28;123128;-80
2023/08/21 16:12:19;;;;;;;;;;;;;;;;;;4917479;28;122422;-80
2023/08/21 16:14:45;;;;;;;;;;;;;;;;;;4897892;28;112669;-80
2023/08/21 16:17:12;;;;;;;;;;;;;;;;;;4898386;28;94833;-82
2023/08/21 16:19:38;;;;;;;;;;;;;;;;;;4878849;28;122992;-82
2023/08/21 16:22:05;;;;;;;;;;;;;;;;;;4926734;28;109126;-81
2023/08/21 16:24:31;;;;;;;;;;;;;;;;;;4904533;28;119333;-80
2023/08/21 16:26:58;;;;;;;;;;;;;;;;;;4891098;28;96576;-81
2023/08/21 16:29:24;;;;;;;;;;;;;;;;;;4921449;28;118500;-82